Time;durP1;ratioP1;P1;durP2;ratioP2;P2;SDS_P1;SDS_P2;PMS_P1;PMS_P2;Temp;Humidity;BMP_temperature;BMP_pressure;BME280_temperature;BME280_humidity;BME280_pressure;Samples;Min_cycle;Max_cycle;Signal;HPM_P1;HPM_P2
2023/12/23 00:01:24;;;;;;;;;;;;;;;;;;5051894;28;19966;-62
2023/12/23 00:03:49;;;;;;;;;;;;;;;;;;5050725;28;20017;-62
2023/12/23 00:06:15;;;;;;;;;;;;;;;;;;5051012;28;19920;-62
2023/12/23 00:08:41;;;;;;;;;;;;;;;;;;5050539;28;19921;-62
2023/12/23 00:11:07;;;;;;;;;;;;;;;;;;5050985;28;19925;-62
2023/12/23 00:13:33;;;;;;;;;;;;;;;;;;5051095;28;20011;-62
2023/12/23 00:15:59;;;;;;;;;;;;;;;;;;5049991;28;19952;-62
2023/12/23 00:18:25;;;;;;;;;;;;;;;;;;5050379;28;19913;-62
2023/12/23 00:20:51;;;;;;;;;;;;;;;;;;5049818;28;20373;-62
2023/12/23 00:23:17;;;;;;;;;;;;;;;;;;5043213;28;20028;-62
2023/12/23 00:25:43;;;;;;;;;;;;;;;;;;5050637;28;19949;-63
2023/12/23 00:28:08;;;;;;;;;;;;;;;;;;5045997;28;20352;-62
2023/12/23 00:30:34;;;;;;;;;;;;;;;;;;5050391;28;19996;-61
2023/12/23 00:33:02;;;;;;;;;;;;;;;;;;5053704;28;19923;-62
2023/12/23 00:35:28;;;;;;;;;;;;;;;;;;5055071;28;19970;-62
2023/12/23 00:37:54;;;;;;;;;;;;;;;;;;5055597;28;19917;-62
2023/12/23 00:40:20;;;;;;;;;;;;;;;;;;5054460;28;19990;-61
2023/12/23 00:42:46;;;;;;;;;;;;;;;;;;5053706;28;20021;-62
2023/12/23 00:45:12;;;;;;;;;;;;;;;;;;5050946;28;19952;-62
2023/12/23 00:47:38;;;;;;;;;;;;;;;;;;5055036;28;19921;-62
2023/12/23 00:50:04;;;;;;;;;;;;;;;;;;5052056;28;19952;-63
2023/12/23 00:52:31;;;;;;;;;;;;;;;;;;5053138;28;19921;-64
2023/12/23 00:54:57;;;;;;;;;;;;;;;;;;5055061;28;19916;-64
2023/12/23 00:57:23;;;;;;;;;;;;;;;;;;5052431;28;19913;-63
2023/12/23 00:59:48;;;;;;;;;;;;;;;;;;5050594;28;19921;-63
2023/12/23 01:02:14;;;;;;;;;;;;;;;;;;5055156;28;19956;-63
2023/12/23 01:04:40;;;;;;;;;;;;;;;;;;5055219;28;19913;-63
2023/12/23 01:07:06;;;;;;;;;;;;;;;;;;5053473;28;20372;-63
2023/12/23 01:09:32;;;;;;;;;;;;;;;;;;5054338;28;20003;-63
2023/12/23 01:11:58;;;;;;;;;;;;;;;;;;5055551;28;19963;-63
2023/12/23 01:14:24;;;;;;;;;;;;;;;;;;5053663;28;19992;-63
2023/12/23 01:16:50;;;;;;;;;;;;;;;;;;5055755;28;20312;-63
2023/12/23 01:19:16;;;;;;;;;;;;;;;;;;5054246;28;20007;-63
2023/12/23 01:21:42;;;;;;;;;;;;;;;;;;5054480;28;19986;-63
2023/12/23 01:24:07;;;;;;;;;;;;;;;;;;5053685;28;19956;-63
2023/12/23 01:26:33;;;;;;;;;;;;;;;;;;5055077;28;19919;-63
2023/12/23 01:29:00;;;;;;;;;;;;;;;;;;5054161;28;19920;-63
2023/12/23 01:31:26;;;;;;;;;;;;;;;;;;5053531;28;19936;-63
2023/12/23 01:33:52;;;;;;;;;;;;;;;;;;5054694;28;19917;-63
2023/12/23 01:36:17;;;;;;;;;;;;;;;;;;5054037;28;19971;-63
2023/12/23 01:38:43;;;;;;;;;;;;;;;;;;5054319;28;19917;-63
2023/12/23 01:41:09;;;;;;;;;;;;;;;;;;5051804;28;19923;-63
2023/12/23 01:43:35;;;;;;;;;;;;;;;;;;5053975;28;19963;-63
2023/12/23 01:46:01;;;;;;;;;;;;;;;;;;5047581;28;20012;-63
2023/12/23 01:48:27;;;;;;;;;;;;;;;;;;5052598;28;19917;-63
2023/12/23 01:50:53;;;;;;;;;;;;;;;;;;5053303;28;19947;-63
2023/12/23 01:53:19;;;;;;;;;;;;;;;;;;5052833;28;19917;-64
2023/12/23 01:55:45;;;;;;;;;;;;;;;;;;5048855;28;19939;-63
2023/12/23 01:58:11;;;;;;;;;;;;;;;;;;5050760;28;20656;-63
2023/12/23 02:00:36;;;;;;;;;;;;;;;;;;5052221;28;19951;-62
2023/12/23 02:03:02;;;;;;;;;;;;;;;;;;5049620;28;19916;-63
2023/12/23 02:05:28;;;;;;;;;;;;;;;;;;5052589;28;19923;-63
2023/12/23 02:07:54;;;;;;;;;;;;;;;;;;5048604;28;19960;-63
2023/12/23 02:10:20;;;;;;;;;;;;;;;;;;5049462;28;20432;-63
2023/12/23 02:12:46;;;;;;;;;;;;;;;;;;5052845;28;19966;-63
2023/12/23 02:15:15;;;;;;;;;;;;;;;;;;5049401;28;19971;-62
2023/12/23 02:17:41;;;;;;;;;;;;;;;;;;5049077;28;19994;-63
2023/12/23 02:20:07;;;;;;;;;;;;;;;;;;5046593;28;20637;-63
2023/12/23 02:22:33;;;;;;;;;;;;;;;;;;5051151;28;19917;-63
2023/12/23 02:24:58;;;;;;;;;;;;;;;;;;5055065;28;19917;-63
2023/12/23 02:27:24;;;;;;;;;;;;;;;;;;5052692;28;19964;-63
2023/12/23 02:29:50;;;;;;;;;;;;;;;;;;5050697;28;19952;-63
2023/12/23 02:32:16;;;;;;;;;;;;;;;;;;5051583;28;19920;-63
2023/12/23 02:34:42;;;;;;;;;;;;;;;;;;5052154;28;19923;-63
2023/12/23 02:37:08;;;;;;;;;;;;;;;;;;5048104;28;19917;-63
2023/12/23 02:39:34;;;;;;;;;;;;;;;;;;5051160;28;19944;-63
2023/12/23 02:42:00;;;;;;;;;;;;;;;;;;5061673;28;20020;-63
2023/12/23 02:44:26;;;;;;;;;;;;;;;;;;5051869;28;20015;-62
2023/12/23 02:46:52;;;;;;;;;;;;;;;;;;5052064;28;20408;-63
2023/12/23 02:49:17;;;;;;;;;;;;;;;;;;5052349;28;19920;-63
2023/12/23 02:51:43;;;;;;;;;;;;;;;;;;5050065;28;21679;-63
2023/12/23 02:54:09;;;;;;;;;;;;;;;;;;5045679;28;19963;-62
2023/12/23 02:56:35;;;;;;;;;;;;;;;;;;5048132;28;19956;-62
2023/12/23 02:59:01;;;;;;;;;;;;;;;;;;5046431;28;19919;-63
2023/12/23 03:01:27;;;;;;;;;;;;;;;;;;5050042;28;20608;-64
2023/12/23 03:03:53;;;;;;;;;;;;;;;;;;5051505;28;19970;-63
2023/12/23 03:06:19;;;;;;;;;;;;;;;;;;5045854;28;20364;-63
2023/12/23 03:08:45;;;;;;;;;;;;;;;;;;5051117;28;19959;-63
2023/12/23 03:11:11;;;;;;;;;;;;;;;;;;5050687;28;20044;-63
2023/12/23 03:13:37;;;;;;;;;;;;;;;;;;5041111;28;20333;-63
2023/12/23 03:16:03;;;;;;;;;;;;;;;;;;5041774;28;19920;-63
2023/12/23 03:18:29;;;;;;;;;;;;;;;;;;5052270;28;20304;-63
2023/12/23 03:20:55;;;;;;;;;;;;;;;;;;5051471;28;19940;-63
2023/12/23 03:23:21;;;;;;;;;;;;;;;;;;5052385;28;19921;-63
2023/12/23 03:25:47;;;;;;;;;;;;;;;;;;5052758;28;19913;-63
2023/12/23 03:28:13;;;;;;;;;;;;;;;;;;5049139;28;20341;-63
2023/12/23 03:30:39;;;;;;;;;;;;;;;;;;5051524;28;19919;-63
2023/12/23 03:33:05;;;;;;;;;;;;;;;;;;5050325;28;19956;-62
2023/12/23 03:35:30;;;;;;;;;;;;;;;;;;5050481;28;19927;-62
2023/12/23 03:37:56;;;;;;;;;;;;;;;;;;5041244;28;19913;-62
2023/12/23 03:40:22;;;;;;;;;;;;;;;;;;5051610;28;19963;-62
2023/12/23 03:42:48;;;;;;;;;;;;;;;;;;5052747;28;19912;-63
2023/12/23 03:45:14;;;;;;;;;;;;;;;;;;5045266;28;19948;-63
2023/12/23 03:47:41;;;;;;;;;;;;;;;;;;5044648;28;20345;-63
2023/12/23 03:50:06;;;;;;;;;;;;;;;;;;5045514;28;19919;-63
2023/12/23 03:52:32;;;;;;;;;;;;;;;;;;5051761;28;19917;-63
2023/12/23 03:54:58;;;;;;;;;;;;;;;;;;5061488;28;19927;-63
2023/12/23 03:57:24;;;;;;;;;;;;;;;;;;5044865;28;19921;-63
2023/12/23 03:59:50;;;;;;;;;;;;;;;;;;5060480;28;19913;-63
2023/12/23 04:02:16;;;;;;;;;;;;;;;;;;5050528;28;20403;-63
2023/12/23 04:04:42;;;;;;;;;;;;;;;;;;5050224;28;19916;-63
2023/12/23 04:07:08;;;;;;;;;;;;;;;;;;5051536;28;19955;-63
2023/12/23 04:09:34;;;;;;;;;;;;;;;;;;5051728;28;20451;-63
2023/12/23 04:12:00;;;;;;;;;;;;;;;;;;5049120;28;19967;-63
2023/12/23 04:14:26;;;;;;;;;;;;;;;;;;5050669;28;19924;-63
2023/12/23 04:16:52;;;;;;;;;;;;;;;;;;5049906;28;19920;-63
2023/12/23 04:19:18;;;;;;;;;;;;;;;;;;5040470;28;19912;-61
2023/12/23 04:21:43;;;;;;;;;;;;;;;;;;5057523;28;19917;-58
2023/12/23 04:24:09;;;;;;;;;;;;;;;;;;5048594;28;19956;-58
2023/12/23 04:26:35;;;;;;;;;;;;;;;;;;5049487;28;19966;-59
2023/12/23 04:29:01;;;;;;;;;;;;;;;;;;5051478;28;19913;-59
2023/12/23 04:31:27;;;;;;;;;;;;;;;;;;5042673;28;20293;-59
2023/12/23 04:33:53;;;;;;;;;;;;;;;;;;5042927;28;19948;-60
2023/12/23 04:36:19;;;;;;;;;;;;;;;;;;5048365;28;19935;-60
2023/12/23 04:38:45;;;;;;;;;;;;;;;;;;5045041;28;19921;-59
2023/12/23 04:41:11;;;;;;;;;;;;;;;;;;5040865;28;20479;-59
2023/12/23 04:43:37;;;;;;;;;;;;;;;;;;5050630;28;20003;-59
2023/12/23 04:46:02;;;;;;;;;;;;;;;;;;5050269;28;20295;-58
2023/12/23 04:48:28;;;;;;;;;;;;;;;;;;5056657;28;20460;-59
2023/12/23 04:50:54;;;;;;;;;;;;;;;;;;5050197;28;19944;-60
2023/12/23 04:53:20;;;;;;;;;;;;;;;;;;5045380;28;19963;-58
2023/12/23 04:55:46;;;;;;;;;;;;;;;;;;5049885;28;19974;-59
2023/12/23 04:58:12;;;;;;;;;;;;;;;;;;5051856;28;19909;-59
2023/12/23 05:00:39;;;;;;;;;;;;;;;;;;5047308;28;20020;-59
2023/12/23 05:03:05;;;;;;;;;;;;;;;;;;5042368;28;19925;-59
2023/12/23 05:05:31;;;;;;;;;;;;;;;;;;5053983;28;19965;-58
2023/12/23 05:07:57;;;;;;;;;;;;;;;;;;5052693;28;19999;-59
2023/12/23 05:10:23;;;;;;;;;;;;;;;;;;5056660;28;19930;-59
2023/12/23 05:12:49;;;;;;;;;;;;;;;;;;5048480;28;19920;-58
2023/12/23 05:15:15;;;;;;;;;;;;;;;;;;5053397;28;19956;-58
2023/12/23 05:17:40;;;;;;;;;;;;;;;;;;5052768;28;20313;-62
2023/12/23 05:20:06;;;;;;;;;;;;;;;;;;5052722;28;20007;-58
2023/12/23 05:22:32;;;;;;;;;;;;;;;;;;5060705;28;19952;-58
2023/12/23 05:24:58;;;;;;;;;;;;;;;;;;5046082;28;20271;-59
2023/12/23 05:27:24;;;;;;;;;;;;;;;;;;5053565;28;19959;-59
2023/12/23 05:29:50;;;;;;;;;;;;;;;;;;5049910;28;19909;-63
2023/12/23 05:32:16;;;;;;;;;;;;;;;;;;5053115;28;20012;-63
2023/12/23 05:34:42;;;;;;;;;;;;;;;;;;5046990;28;20007;-63
2023/12/23 05:37:08;;;;;;;;;;;;;;;;;;5059562;28;19919;-63
2023/12/23 05:39:34;;;;;;;;;;;;;;;;;;5052151;28;20369;-62
2023/12/23 05:42:00;;;;;;;;;;;;;;;;;;5052258;28;20110;-63
2023/12/23 05:44:26;;;;;;;;;;;;;;;;;;5054021;28;20269;-63
2023/12/23 05:46:52;;;;;;;;;;;;;;;;;;5060398;28;19915;-63
2023/12/23 05:49:18;;;;;;;;;;;;;;;;;;5051348;28;20325;-63
2023/12/23 05:51:43;;;;;;;;;;;;;;;;;;5053043;28;19917;-63
2023/12/23 05:54:09;;;;;;;;;;;;;;;;;;5050858;28;20011;-63
2023/12/23 05:56:35;;;;;;;;;;;;;;;;;;5046150;28;19968;-64
2023/12/23 05:59:01;;;;;;;;;;;;;;;;;;5052850;28;19999;-63
2023/12/23 06:01:27;;;;;;;;;;;;;;;;;;5048416;28;19917;-63
2023/12/23 06:03:53;;;;;;;;;;;;;;;;;;5051078;28;20330;-63
2023/12/23 06:06:19;;;;;;;;;;;;;;;;;;5052997;28;20010;-62
2023/12/23 06:08:45;;;;;;;;;;;;;;;;;;5047409;28;19948;-64
2023/12/23 06:11:11;;;;;;;;;;;;;;;;;;5053588;28;19921;-63
2023/12/23 06:13:36;;;;;;;;;;;;;;;;;;5045294;28;19923;-63
2023/12/23 06:16:02;;;;;;;;;;;;;;;;;;5047956;28;19956;-63
2023/12/23 06:18:28;;;;;;;;;;;;;;;;;;5043508;28;19939;-63
2023/12/23 06:20:54;;;;;;;;;;;;;;;;;;5051246;28;19916;-63
2023/12/23 06:23:20;;;;;;;;;;;;;;;;;;5042345;28;19959;-63
2023/12/23 06:25:46;;;;;;;;;;;;;;;;;;5052051;28;19952;-63
2023/12/23 06:28:12;;;;;;;;;;;;;;;;;;5050914;28;20307;-63
2023/12/23 06:30:38;;;;;;;;;;;;;;;;;;5049967;28;19927;-63
2023/12/23 06:33:04;;;;;;;;;;;;;;;;;;5049813;28;19920;-62
2023/12/23 06:35:30;;;;;;;;;;;;;;;;;;5052443;28;19956;-63
2023/12/23 06:37:55;;;;;;;;;;;;;;;;;;5051143;28;20010;-63
2023/12/23 06:40:21;;;;;;;;;;;;;;;;;;5052973;28;20376;-58
2023/12/23 06:42:47;;;;;;;;;;;;;;;;;;5040361;28;20003;-58
2023/12/23 06:45:14;;;;;;;;;;;;;;;;;;5048735;28;20288;-57
2023/12/23 06:47:40;;;;;;;;;;;;;;;;;;5051771;28;19912;-59
2023/12/23 06:50:05;;;;;;;;;;;;;;;;;;5049273;28;19919;-60
2023/12/23 06:52:31;;;;;;;;;;;;;;;;;;5049783;28;20364;-58
2023/12/23 06:54:57;;;;;;;;;;;;;;;;;;5046557;28;20049;-58
2023/12/23 06:57:23;;;;;;;;;;;;;;;;;;5038362;28;20334;-59
2023/12/23 06:59:49;;;;;;;;;;;;;;;;;;5040774;28;19924;-57
2023/12/23 07:02:15;;;;;;;;;;;;;;;;;;5047289;28;19923;-59
2023/12/23 07:04:42;;;;;;;;;;;;;;;;;;5051190;28;19986;-59
2023/12/23 07:07:08;;;;;;;;;;;;;;;;;;5056694;28;20387;-58
2023/12/23 07:09:34;;;;;;;;;;;;;;;;;;5051072;28;19948;-58
2023/12/23 07:12:00;;;;;;;;;;;;;;;;;;5057151;28;19960;-58
2023/12/23 07:14:25;;;;;;;;;;;;;;;;;;5052780;28;20026;-59
2023/12/23 07:16:51;;;;;;;;;;;;;;;;;;5052763;28;20011;-58
2023/12/23 07:19:17;;;;;;;;;;;;;;;;;;5044023;28;19917;-59
2023/12/23 07:21:44;;;;;;;;;;;;;;;;;;5047977;28;20283;-59
2023/12/23 07:24:10;;;;;;;;;;;;;;;;;;5048733;28;19935;-59
2023/12/23 07:26:36;;;;;;;;;;;;;;;;;;5052273;28;19963;-58
2023/12/23 07:29:02;;;;;;;;;;;;;;;;;;5050338;28;19913;-58
2023/12/23 07:31:32;;;;;;;;;;;;;;;;;;5047067;28;20076;-58
2023/12/23 07:33:58;;;;;;;;;;;;;;;;;;5051790;28;19944;-57
2023/12/23 07:36:24;;;;;;;;;;;;;;;;;;5049570;28;19924;-57
2023/12/23 07:38:51;;;;;;;;;;;;;;;;;;5043462;28;21540;-58
2023/12/23 07:41:17;;;;;;;;;;;;;;;;;;5034561;28;19960;-58
2023/12/23 07:43:43;;;;;;;;;;;;;;;;;;5054318;28;19916;-58
2023/12/23 07:46:09;;;;;;;;;;;;;;;;;;5053670;28;19956;-57
2023/12/23 07:48:35;;;;;;;;;;;;;;;;;;5041290;28;20114;-58
2023/12/23 07:51:01;;;;;;;;;;;;;;;;;;5048477;28;19919;-62
2023/12/23 07:53:27;;;;;;;;;;;;;;;;;;5043059;28;20385;-62
2023/12/23 07:55:53;;;;;;;;;;;;;;;;;;5042068;28;19978;-63
2023/12/23 07:58:18;;;;;;;;;;;;;;;;;;5048108;28;19999;-61
2023/12/23 08:00:45;;;;;;;;;;;;;;;;;;5046260;28;19960;-62
2023/12/23 08:03:11;;;;;;;;;;;;;;;;;;5050669;28;20375;-62
2023/12/23 08:05:37;;;;;;;;;;;;;;;;;;5038128;28;19968;-62
2023/12/23 08:08:03;;;;;;;;;;;;;;;;;;5043989;28;19917;-62
2023/12/23 08:10:29;;;;;;;;;;;;;;;;;;5048000;28;20466;-62
2023/12/23 08:12:54;;;;;;;;;;;;;;;;;;5052119;28;19963;-62
2023/12/23 08:15:20;;;;;;;;;;;;;;;;;;5043323;28;19917;-62
2023/12/23 08:17:46;;;;;;;;;;;;;;;;;;5039966;28;20007;-62
2023/12/23 08:20:12;;;;;;;;;;;;;;;;;;5048849;28;20272;-63
2023/12/23 08:22:38;;;;;;;;;;;;;;;;;;5037561;28;19956;-62
2023/12/23 08:25:04;;;;;;;;;;;;;;;;;;5047159;28;19956;-62
2023/12/23 08:27:31;;;;;;;;;;;;;;;;;;5040460;28;19936;-61
2023/12/23 08:29:56;;;;;;;;;;;;;;;;;;5044984;28;20337;-62
2023/12/23 08:32:22;;;;;;;;;;;;;;;;;;5055274;28;19996;-62
2023/12/23 08:34:48;;;;;;;;;;;;;;;;;;5048267;28;19917;-61
2023/12/23 08:37:14;;;;;;;;;;;;;;;;;;5049620;28;19916;-62
2023/12/23 08:39:40;;;;;;;;;;;;;;;;;;5049107;28;20006;-62
2023/12/23 08:42:06;;;;;;;;;;;;;;;;;;5046506;28;19956;-62
2023/12/23 08:44:32;;;;;;;;;;;;;;;;;;5051088;28;20372;-62
2023/12/23 08:46:58;;;;;;;;;;;;;;;;;;5049968;28;19920;-62
2023/12/23 08:49:24;;;;;;;;;;;;;;;;;;5048102;28;20349;-62
2023/12/23 08:51:49;;;;;;;;;;;;;;;;;;5048127;28;20003;-62
2023/12/23 08:54:15;;;;;;;;;;;;;;;;;;5053793;28;19913;-62
2023/12/23 08:56:41;;;;;;;;;;;;;;;;;;5050079;28;19959;-62
2023/12/23 08:59:07;;;;;;;;;;;;;;;;;;5050244;28;19964;-62
2023/12/23 09:01:33;;;;;;;;;;;;;;;;;;5052685;28;19927;-62
2023/12/23 09:03:59;;;;;;;;;;;;;;;;;;5050655;28;19959;-62
2023/12/23 09:06:25;;;;;;;;;;;;;;;;;;5052814;28;20022;-62
2023/12/23 09:08:53;;;;;;;;;;;;;;;;;;5042565;28;19913;-62
2023/12/23 09:11:19;;;;;;;;;;;;;;;;;;5047982;28;19928;-62
2023/12/23 09:13:45;;;;;;;;;;;;;;;;;;5047388;28;19987;-62
2023/12/23 09:16:10;;;;;;;;;;;;;;;;;;5048318;28;19986;-62
2023/12/23 09:18:36;;;;;;;;;;;;;;;;;;5047306;28;20430;-62
2023/12/23 09:21:02;;;;;;;;;;;;;;;;;;5040203;28;20004;-62
2023/12/23 09:23:28;;;;;;;;;;;;;;;;;;5044521;28;20293;-62
2023/12/23 09:25:54;;;;;;;;;;;;;;;;;;5045688;28;19919;-62
2023/12/23 09:28:20;;;;;;;;;;;;;;;;;;5050587;28;19913;-62
2023/12/23 09:30:47;;;;;;;;;;;;;;;;;;5046003;28;20395;-62
2023/12/23 09:33:13;;;;;;;;;;;;;;;;;;5050311;28;19952;-62
2023/12/23 09:35:39;;;;;;;;;;;;;;;;;;5051724;28;19952;-62
2023/12/23 09:38:04;;;;;;;;;;;;;;;;;;5051370;28;20032;-62
2023/12/23 09:40:30;;;;;;;;;;;;;;;;;;5050266;28;20037;-62
2023/12/23 09:42:56;;;;;;;;;;;;;;;;;;5055172;28;19912;-62
2023/12/23 09:45:22;;;;;;;;;;;;;;;;;;5049052;28;21638;-62
2023/12/23 09:47:48;;;;;;;;;;;;;;;;;;5047693;28;20007;-62
2023/12/23 09:50:14;;;;;;;;;;;;;;;;;;5050471;28;20743;-62
2023/12/23 09:52:40;;;;;;;;;;;;;;;;;;5046605;28;19913;-62
2023/12/23 09:55:07;;;;;;;;;;;;;;;;;;5044838;28;19924;-62
2023/12/23 09:57:33;;;;;;;;;;;;;;;;;;5043869;28;19921;-62
2023/12/23 09:59:59;;;;;;;;;;;;;;;;;;5044484;28;19960;-62
2023/12/23 10:02:25;;;;;;;;;;;;;;;;;;5039587;28;19920;-62
2023/12/23 10:04:51;;;;;;;;;;;;;;;;;;5045675;28;19976;-62
2023/12/23 10:07:17;;;;;;;;;;;;;;;;;;5043869;28;20392;-62
2023/12/23 10:09:43;;;;;;;;;;;;;;;;;;5040387;28;19967;-62
2023/12/23 10:12:09;;;;;;;;;;;;;;;;;;5043205;28;19920;-62
2023/12/23 10:14:35;;;;;;;;;;;;;;;;;;5043917;28;19963;-62
2023/12/23 10:17:01;;;;;;;;;;;;;;;;;;5045939;28;21391;-62
2023/12/23 10:19:26;;;;;;;;;;;;;;;;;;5042933;28;19916;-62
2023/12/23 10:21:52;;;;;;;;;;;;;;;;;;5043768;28;21579;-61
2023/12/23 10:24:19;;;;;;;;;;;;;;;;;;5044375;28;19927;-62
2023/12/23 10:26:45;;;;;;;;;;;;;;;;;;5041425;28;19974;-61
2023/12/23 10:29:11;;;;;;;;;;;;;;;;;;5042061;28;19996;-62
2023/12/23 10:31:37;;;;;;;;;;;;;;;;;;5038079;28;19952;-62
2023/12/23 10:34:03;;;;;;;;;;;;;;;;;;5046369;28;19952;-61
2023/12/23 10:36:29;;;;;;;;;;;;;;;;;;5043788;28;20337;-62
2023/12/23 10:38:55;;;;;;;;;;;;;;;;;;5049850;28;19909;-62
2023/12/23 10:41:20;;;;;;;;;;;;;;;;;;5049174;28;19917;-63
2023/12/23 10:43:46;;;;;;;;;;;;;;;;;;5040318;28;20005;-62
2023/12/23 10:46:12;;;;;;;;;;;;;;;;;;5051014;28;19913;-62
2023/12/23 10:48:38;;;;;;;;;;;;;;;;;;5038013;28;19948;-62
2023/12/23 10:51:04;;;;;;;;;;;;;;;;;;5048584;28;19958;-62
2023/12/23 10:53:30;;;;;;;;;;;;;;;;;;5050927;28;19921;-62
2023/12/23 10:55:56;;;;;;;;;;;;;;;;;;5049456;28;20392;-62
2023/12/23 10:58:22;;;;;;;;;;;;;;;;;;5038985;28;19971;-62
2023/12/23 11:00:48;;;;;;;;;;;;;;;;;;5048761;28;19947;-62
2023/12/23 11:03:14;;;;;;;;;;;;;;;;;;5052822;28;20010;-62
2023/12/23 11:05:39;;;;;;;;;;;;;;;;;;5046390;28;19917;-62
2023/12/23 11:08:05;;;;;;;;;;;;;;;;;;5043095;28;20376;-62
2023/12/23 11:10:31;;;;;;;;;;;;;;;;;;5036751;28;20341;-62
2023/12/23 11:12:57;;;;;;;;;;;;;;;;;;5048005;28;20003;-62
2023/12/23 11:15:23;;;;;;;;;;;;;;;;;;5047795;28;19963;-62
2023/12/23 11:17:49;;;;;;;;;;;;;;;;;;5054781;28;20044;-62
2023/12/23 11:20:15;;;;;;;;;;;;;;;;;;5044886;28;20086;-61
2023/12/23 11:22:41;;;;;;;;;;;;;;;;;;5047042;28;19913;-61
2023/12/23 11:25:07;;;;;;;;;;;;;;;;;;5038602;28;19924;-61
2023/12/23 11:27:33;;;;;;;;;;;;;;;;;;5049144;28;20007;-61
2023/12/23 11:29:59;;;;;;;;;;;;;;;;;;5050248;28;20372;-61
2023/12/23 11:32:25;;;;;;;;;;;;;;;;;;5050044;28;19909;-61
2023/12/23 11:34:51;;;;;;;;;;;;;;;;;;5038546;28;19991;-61
2023/12/23 11:37:17;;;;;;;;;;;;;;;;;;5043408;28;19917;-61
2023/12/23 11:39:43;;;;;;;;;;;;;;;;;;5047452;28;20023;-61
2023/12/23 11:42:09;;;;;;;;;;;;;;;;;;5038643;28;19945;-61
2023/12/23 11:44:35;;;;;;;;;;;;;;;;;;5044294;28;19913;-61
2023/12/23 11:47:01;;;;;;;;;;;;;;;;;;5034225;28;20359;-61
2023/12/23 11:49:26;;;;;;;;;;;;;;;;;;5050237;28;19950;-61
2023/12/23 11:51:52;;;;;;;;;;;;;;;;;;5038183;28;20283;-61
2023/12/23 11:54:18;;;;;;;;;;;;;;;;;;5052637;28;19917;-61
2023/12/23 11:56:44;;;;;;;;;;;;;;;;;;5049447;28;19952;-61
2023/12/23 11:59:11;;;;;;;;;;;;;;;;;;5042795;28;19948;-61
2023/12/23 12:01:37;;;;;;;;;;;;;;;;;;5044891;28;19924;-61
2023/12/23 12:04:04;;;;;;;;;;;;;;;;;;5037707;28;19909;-61
2023/12/23 12:06:30;;;;;;;;;;;;;;;;;;5038200;28;20291;-61
2023/12/23 12:08:56;;;;;;;;;;;;;;;;;;5048753;28;20316;-61
2023/12/23 12:11:24;;;;;;;;;;;;;;;;;;5045128;28;20002;-61
2023/12/23 12:13:50;;;;;;;;;;;;;;;;;;5040287;28;19913;-62
2023/12/23 12:16:16;;;;;;;;;;;;;;;;;;5043108;28;19979;-62
2023/12/23 12:18:42;;;;;;;;;;;;;;;;;;5053710;28;19944;-61
2023/12/23 12:21:08;;;;;;;;;;;;;;;;;;5045932;28;19917;-61
2023/12/23 12:23:34;;;;;;;;;;;;;;;;;;5058880;28;19944;-61
2023/12/23 12:26:00;;;;;;;;;;;;;;;;;;5049484;28;20000;-61
2023/12/23 12:28:26;;;;;;;;;;;;;;;;;;5049645;28;19969;-62
2023/12/23 12:30:52;;;;;;;;;;;;;;;;;;5048820;28;20330;-63
2023/12/23 12:33:18;;;;;;;;;;;;;;;;;;5043158;28;19966;-63
2023/12/23 12:35:44;;;;;;;;;;;;;;;;;;5048119;28;19961;-62
2023/12/23 12:38:10;;;;;;;;;;;;;;;;;;5050280;28;19916;-62
2023/12/23 12:40:36;;;;;;;;;;;;;;;;;;5039975;28;19971;-62
2023/12/23 12:43:02;;;;;;;;;;;;;;;;;;5046293;28;20372;-62
2023/12/23 12:45:28;;;;;;;;;;;;;;;;;;5044181;28;19980;-62
2023/12/23 12:47:54;;;;;;;;;;;;;;;;;;5042681;28;20016;-62
2023/12/23 12:50:20;;;;;;;;;;;;;;;;;;5040811;28;19913;-62
2023/12/23 12:52:46;;;;;;;;;;;;;;;;;;5047249;28;19917;-63
2023/12/23 12:55:11;;;;;;;;;;;;;;;;;;5045371;28;19920;-63
2023/12/23 12:57:37;;;;;;;;;;;;;;;;;;5047352;28;19948;-63
2023/12/23 13:00:07;;;;;;;;;;;;;;;;;;5045297;28;19947;-62
2023/12/23 13:02:33;;;;;;;;;;;;;;;;;;5044044;28;19967;-62
2023/12/23 13:04:59;;;;;;;;;;;;;;;;;;5043242;28;19978;-62
2023/12/23 13:07:25;;;;;;;;;;;;;;;;;;5040824;28;19913;-63
2023/12/23 13:09:51;;;;;;;;;;;;;;;;;;5048031;28;19968;-63
2023/12/23 13:12:17;;;;;;;;;;;;;;;;;;5047950;28;19948;-63
2023/12/23 13:14:43;;;;;;;;;;;;;;;;;;5049979;28;19917;-62
2023/12/23 13:17:09;;;;;;;;;;;;;;;;;;5036423;28;19921;-63
2023/12/23 13:19:35;;;;;;;;;;;;;;;;;;5044391;28;20342;-63
2023/12/23 13:22:01;;;;;;;;;;;;;;;;;;5046187;28;19920;-63
2023/12/23 13:24:27;;;;;;;;;;;;;;;;;;5044971;28;19959;-63
2023/12/23 13:26:53;;;;;;;;;;;;;;;;;;5042844;28;20375;-62
2023/12/23 13:29:21;;;;;;;;;;;;;;;;;;5045952;28;19923;-63
2023/12/23 13:31:47;;;;;;;;;;;;;;;;;;5046630;28;19909;-63
2023/12/23 13:34:13;;;;;;;;;;;;;;;;;;5040237;28;19999;-63
2023/12/23 13:36:39;;;;;;;;;;;;;;;;;;5044649;28;19923;-63
2023/12/23 13:39:05;;;;;;;;;;;;;;;;;;5046908;28;19912;-63
2023/12/23 13:41:31;;;;;;;;;;;;;;;;;;5052408;28;19913;-63
2023/12/23 13:43:57;;;;;;;;;;;;;;;;;;5047771;28;20448;-62
2023/12/23 13:46:23;;;;;;;;;;;;;;;;;;5050852;28;19916;-62
2023/12/23 13:48:49;;;;;;;;;;;;;;;;;;5046651;28;20402;-63
2023/12/23 13:51:15;;;;;;;;;;;;;;;;;;5043330;28;19914;-62
2023/12/23 13:53:43;;;;;;;;;;;;;;;;;;5047586;28;19963;-62
2023/12/23 13:56:09;;;;;;;;;;;;;;;;;;5041151;28;19956;-62
2023/12/23 13:58:35;;;;;;;;;;;;;;;;;;5039704;28;19920;-63
2023/12/23 14:01:01;;;;;;;;;;;;;;;;;;5042361;28;19968;-62
2023/12/23 14:03:27;;;;;;;;;;;;;;;;;;5040906;28;19982;-62
2023/12/23 14:05:53;;;;;;;;;;;;;;;;;;5045482;28;19949;-63
2023/12/23 14:08:19;;;;;;;;;;;;;;;;;;5049127;28;19926;-63
2023/12/23 14:10:45;;;;;;;;;;;;;;;;;;5042423;28;20385;-63
2023/12/23 14:13:11;;;;;;;;;;;;;;;;;;5045354;28;19952;-63
2023/12/23 14:15:37;;;;;;;;;;;;;;;;;;5045540;28;19956;-62
2023/12/23 14:18:03;;;;;;;;;;;;;;;;;;5040912;28;19921;-63
2023/12/23 14:20:29;;;;;;;;;;;;;;;;;;5041585;28;19955;-63
2023/12/23 14:22:55;;;;;;;;;;;;;;;;;;5043651;28;19952;-62
2023/12/23 14:25:22;;;;;;;;;;;;;;;;;;5043885;28;19923;-63
2023/12/23 14:27:48;;;;;;;;;;;;;;;;;;5041741;28;19917;-63
2023/12/23 14:30:14;;;;;;;;;;;;;;;;;;5042403;28;19964;-62
2023/12/23 14:32:40;;;;;;;;;;;;;;;;;;5047058;28;20331;-62
2023/12/23 14:35:06;;;;;;;;;;;;;;;;;;5044732;28;19928;-62
2023/12/23 14:37:32;;;;;;;;;;;;;;;;;;5041649;28;19964;-62
2023/12/23 14:39:58;;;;;;;;;;;;;;;;;;5046010;28;19962;-62
2023/12/23 14:42:24;;;;;;;;;;;;;;;;;;5044237;28;19956;-62
2023/12/23 14:44:50;;;;;;;;;;;;;;;;;;5044020;28;19985;-63
2023/12/23 14:47:17;;;;;;;;;;;;;;;;;;5041819;28;19960;-63
2023/12/23 14:49:43;;;;;;;;;;;;;;;;;;5043385;28;20002;-62
2023/12/23 14:52:09;;;;;;;;;;;;;;;;;;5039128;28;19952;-63
2023/12/23 14:54:35;;;;;;;;;;;;;;;;;;5037917;28;19953;-63
2023/12/23 14:57:02;;;;;;;;;;;;;;;;;;5042842;28;19924;-63
2023/12/23 14:59:30;;;;;;;;;;;;;;;;;;5042662;28;19913;-63
2023/12/23 15:01:56;;;;;;;;;;;;;;;;;;5041458;28;19913;-63
2023/12/23 15:04:22;;;;;;;;;;;;;;;;;;5045421;28;19913;-63
2023/12/23 15:06:48;;;;;;;;;;;;;;;;;;5044181;28;19919;-63
2023/12/23 15:09:14;;;;;;;;;;;;;;;;;;5042425;28;19923;-63
2023/12/23 15:11:39;;;;;;;;;;;;;;;;;;5045456;28;19928;-63
2023/12/23 15:14:06;;;;;;;;;;;;;;;;;;5042249;28;19983;-63
2023/12/23 15:16:33;;;;;;;;;;;;;;;;;;5040881;28;19925;-63
2023/12/23 15:18:59;;;;;;;;;;;;;;;;;;5042747;28;20332;-63
2023/12/23 15:21:26;;;;;;;;;;;;;;;;;;5041908;28;19921;-62
2023/12/23 15:23:52;;;;;;;;;;;;;;;;;;5042805;28;19913;-62
2023/12/23 15:26:18;;;;;;;;;;;;;;;;;;5041738;28;19994;-63
2023/12/23 15:28:44;;;;;;;;;;;;;;;;;;5046199;28;19947;-63
2023/12/23 15:31:10;;;;;;;;;;;;;;;;;;5042421;28;21330;-63
2023/12/23 15:33:36;;;;;;;;;;;;;;;;;;5043335;28;19920;-63
2023/12/23 15:36:03;;;;;;;;;;;;;;;;;;5044106;28;19917;-62
2023/12/23 15:38:29;;;;;;;;;;;;;;;;;;5049242;28;20134;-63
2023/12/23 15:40:55;;;;;;;;;;;;;;;;;;5045641;28;19917;-63
2023/12/23 15:43:21;;;;;;;;;;;;;;;;;;5045784;28;20312;-63
2023/12/23 15:45:46;;;;;;;;;;;;;;;;;;5047573;28;19928;-63
2023/12/23 15:48:12;;;;;;;;;;;;;;;;;;5046960;28;19913;-63
2023/12/23 15:50:38;;;;;;;;;;;;;;;;;;5046064;28;20368;-62
2023/12/23 15:53:04;;;;;;;;;;;;;;;;;;5046022;28;19961;-63
2023/12/23 15:55:30;;;;;;;;;;;;;;;;;;5042602;28;20023;-63
2023/12/23 15:57:56;;;;;;;;;;;;;;;;;;5046634;28;20547;-62
2023/12/23 16:00:22;;;;;;;;;;;;;;;;;;5042788;28;19939;-63
2023/12/23 16:02:48;;;;;;;;;;;;;;;;;;5040036;28;19917;-63
2023/12/23 16:05:14;;;;;;;;;;;;;;;;;;5042659;28;19962;-63
2023/12/23 16:07:40;;;;;;;;;;;;;;;;;;5041846;28;20047;-63
2023/12/23 16:10:05;;;;;;;;;;;;;;;;;;5041712;28;20004;-63
2023/12/23 16:12:33;;;;;;;;;;;;;;;;;;5054965;28;20418;-63
2023/12/23 16:14:59;;;;;;;;;;;;;;;;;;5044281;28;19951;-63
2023/12/23 16:17:24;;;;;;;;;;;;;;;;;;5037328;28;20399;-63
2023/12/23 16:19:50;;;;;;;;;;;;;;;;;;5032108;28;19909;-63
2023/12/23 16:22:16;;;;;;;;;;;;;;;;;;5046195;28;19956;-63
2023/12/23 16:24:43;;;;;;;;;;;;;;;;;;5050239;28;20287;-63
2023/12/23 16:27:10;;;;;;;;;;;;;;;;;;5049895;28;19913;-63
2023/12/23 16:29:36;;;;;;;;;;;;;;;;;;5041142;28;19944;-63
2023/12/23 16:32:02;;;;;;;;;;;;;;;;;;5038678;28;20396;-63
2023/12/23 16:34:28;;;;;;;;;;;;;;;;;;5050584;28;20323;-63
2023/12/23 16:36:54;;;;;;;;;;;;;;;;;;5038062;28;19964;-63